Time;durP1;ratioP1;P1;durP2;ratioP2;P2;SDS_P1;SDS_P2;PMS_P1;PMS_P2;Temp;Humidity;BMP_temperature;BMP_pressure;BME280_temperature;BME280_humidity;BME280_pressure;Samples;Min_cycle;Max_cycle;Signal;HPM_P1;HPM_P2
2022/12/17 13:08:07;;;;;;;23.85;14.73;;;6.60;99.90;;;;;;5072414;28;20032;-42
2022/12/17 13:10:34;;;;;;;26.42;15.68;;;6.40;99.90;;;;;;5072338;28;20039;-42
2022/12/17 13:13:13;;;;;;;23.27;15.27;;;6.70;99.90;;;;;;5072242;28;20025;-41
2022/12/17 13:15:45;;;;;;;23.52;14.75;;;7.70;99.90;;;;;;5072122;28;20060;-42
2022/12/17 13:18:31;;;;;;;29.77;15.50;;;7.50;99.90;;;;;;5072025;28;20510;-42
2022/12/17 13:21:19;;;;;;;25.45;15.35;;;7.10;99.90;;;;;;5072107;28;20024;-42
2022/12/17 13:23:45;;;;;;;26.17;15.57;;;6.80;99.90;;;;;;5072748;28;20036;-39
2022/12/17 13:26:23;;;;;;;26.55;15.73;;;6.60;99.90;;;;;;5071565;28;20032;-41
2022/12/17 13:29:09;;;;;;;25.35;15.00;;;6.40;99.90;;;;;;5071899;28;20024;-42
2022/12/17 13:32:01;;;;;;;25.27;15.15;;;7.50;99.90;;;;;;5071887;28;20033;-40
2022/12/17 13:34:58;;;;;;;27.92;16.65;;;7.60;99.90;;;;;;5072232;28;20131;-39
2022/12/17 13:37:29;;;;;;;25.85;15.55;;;7.40;99.90;;;;;;5071438;28;20024;-40
2022/12/17 13:40:39;;;;;;;27.05;15.55;;;7.10;99.90;;;;;;5071709;28;20028;-38
2022/12/17 13:43:28;;;;;;;26.25;15.50;;;6.80;99.90;;;;;;5049271;28;20029;-37
2022/12/17 13:45:54;;;;;;;23.83;15.15;;;6.50;99.90;;;;;;5070220;28;20028;-40
2022/12/17 13:48:26;;;;;;;27.63;15.27;;;6.40;99.90;;;;;;5071532;28;20108;-41
2022/12/17 13:50:58;;;;;;;28.95;16.52;;;6.50;99.90;;;;;;5071753;28;20052;-40
2022/12/17 13:53:26;;;;;;;23.63;14.00;;;7.60;99.90;;;;;;5072059;28;20103;-39
2022/12/17 13:55:54;;;;;;;23.95;14.60;;;7.50;99.90;;;;;;5071606;28;20032;-38
2022/12/17 13:58:22;;;;;;;26.63;15.45;;;7.20;99.90;;;;;;5071459;28;20497;-39
2022/12/17 14:00:49;;;;;;;25.08;15.90;;;6.90;99.90;;;;;;5071773;28;20548;-41
2022/12/17 14:03:21;;;;;;;24.55;15.88;;;6.70;99.90;;;;;;5071678;28;20119;-40
2022/12/17 14:05:47;;;;;;;25.75;16.30;;;6.50;99.90;;;;;;5071145;28;20020;-40
2022/12/17 14:08:17;;;;;;;26.05;15.18;;;6.40;99.90;;;;;;5071353;28;20058;-38
2022/12/17 14:13:47;;;;;;;26.38;16.10;;;7.70;99.90;;;;;;5071617;28;20035;-41
2022/12/17 14:16:18;;;;;;;28.48;16.83;;;7.40;99.90;;;;;;5070725;28;20071;-38
2022/12/17 14:18:50;;;;;;;26.95;16.70;;;7.10;99.90;;;;;;5071192;28;20024;-42
2022/12/17 14:21:16;;;;;;;26.65;16.55;;;6.80;99.90;;;;;;5071282;28;20060;-42
2022/12/17 14:23:43;;;;;;;27.80;17.05;;;6.60;99.90;;;;;;5071589;28;20032;-43
2022/12/17 14:26:10;;;;;;;26.40;16.08;;;6.40;99.90;;;;;;5070949;28;20020;-40
2022/12/17 14:28:48;;;;;;;31.35;17.05;;;6.50;99.90;;;;;;5070959;28;20401;-38
2022/12/17 14:31:14;;;;;;;27.67;16.70;;;7.50;99.90;;;;;;5071127;28;20020;-41
2022/12/17 14:33:41;;;;;;;28.23;16.08;;;7.50;99.90;;;;;;5071144;28;20393;-42
2022/12/17 14:36:17;;;;;;;26.25;16.50;;;7.10;99.90;;;;;;5070815;28;20043;-42
2022/12/17 14:38:55;;;;;;;28.45;17.40;;;6.90;99.90;;;;;;5071031;28;20025;-42
2022/12/17 14:44:05;;;;;;;31.33;17.80;;;6.40;99.90;;;;;;5075165;28;20447;-42
2022/12/17 14:46:33;;;;;;;26.42;15.90;;;6.30;99.90;;;;;;5075120;28;20058;-41
2022/12/17 14:49:04;;;;;;;27.30;15.95;;;7.20;99.90;;;;;;5075037;28;20028;-42
2022/12/17 14:51:39;;;;;;;27.15;16.65;;;7.60;99.90;;;;;;5074962;28;20029;-40
2022/12/17 14:54:24;;;;;;;24.65;15.80;;;7.20;99.90;;;;;;5075325;28;20082;-41
2022/12/17 14:56:53;;;;;;;29.67;16.95;;;6.90;99.90;;;;;;5074547;28;20028;-42
2022/12/17 14:59:34;;;;;;;29.15;16.50;;;6.60;99.90;;;;;;5074793;28;20066;-39
2022/12/17 15:02:03;;;;;;;27.85;16.55;;;6.40;99.90;;;;;;5074648;28;20021;-40
2022/12/17 15:04:31;;;;;;;28.52;16.25;;;6.30;99.90;;;;;;5074819;28;20025;-39
2022/12/17 15:06:57;;;;;;;28.27;16.98;;;6.90;99.90;;;;;;5074485;28;20066;-42
2022/12/17 15:09:23;;;;;;;26.90;15.98;;;7.60;99.90;;;;;;5074634;28;20528;-41
2022/12/17 15:11:49;;;;;;;29.55;17.10;;;7.30;99.90;;;;;;5074610;28;20084;-42
2022/12/17 15:14:15;;;;;;;27.25;16.45;;;7.00;99.90;;;;;;5074414;28;20032;-43
2022/12/17 15:16:41;;;;;;;26.02;16.15;;;6.70;99.90;;;;;;5074131;28;20063;-42
2022/12/17 15:19:06;;;;;;;24.38;16.45;;;6.50;99.90;;;;;;5074434;28;20021;-42
2022/12/17 15:21:32;;;;;;;26.15;16.23;;;6.30;99.90;;;;;;5074372;28;20027;-41
2022/12/17 15:23:58;;;;;;;27.73;16.95;;;6.30;99.90;;;;;;5074614;28;20469;-40
2022/12/17 15:26:23;;;;;;;26.55;15.55;;;7.30;99.90;;;;;;5074032;28;20025;-39
2022/12/17 15:28:49;;;;;;;28.83;16.77;;;7.50;99.90;;;;;;5074246;28;20107;-41
2022/12/17 15:31:15;;;;;;;28.52;17.33;;;7.10;99.90;;;;;;5074172;28;20024;-41
2022/12/17 15:33:41;;;;;;;26.73;16.67;;;6.80;99.90;;;;;;5074239;28;20539;-42
2022/12/17 15:36:08;;;;;;;27.23;17.10;;;6.60;99.90;;;;;;5073849;28;20066;-38
2022/12/17 15:38:34;;;;;;;30.20;17.35;;;6.40;99.90;;;;;;5073983;28;20038;-39
2022/12/17 15:43:09;;;;;;;29.52;18.15;;;6.20;99.90;;;;;;5074037;28;20428;-42
2022/12/17 15:43:48;;;;;;;29.20;17.27;;;6.60;99.90;;;;;;5073879;28;20446;-42
2022/12/17 15:46:14;;;;;;;28.58;18.13;;;7.50;99.90;;;;;;5073683;28;20382;-42
2022/12/17 15:48:39;;;;;;;28.92;17.50;;;7.20;99.90;;;;;;5073909;28;20029;-41
2022/12/17 15:51:05;;;;;;;28.05;17.63;;;6.90;99.90;;;;;;5073849;28;20036;-42
2022/12/17 15:53:31;;;;;;;25.33;16.20;;;6.60;99.90;;;;;;5071230;28;20028;-38
2022/12/17 15:56:00;;;;;;;28.25;17.98;;;6.40;99.90;;;;;;5073442;28;20032;-42
2022/12/17 15:58:26;;;;;;;27.67;17.30;;;6.20;99.90;;;;;;5073744;28;20040;-42
2022/12/17 16:00:52;;;;;;;26.50;16.90;;;6.20;99.90;;;;;;5073679;28;20497;-42
2022/12/17 16:03:17;;;;;;;30.77;18.48;;;7.30;99.90;;;;;;5073887;28;20029;-41
2022/12/17 16:05:43;;;;;;;26.45;17.88;;;7.30;99.90;;;;;;5073523;28;20466;-42
2022/12/17 16:08:08;;;;;;;27.02;17.60;;;7.00;99.90;;;;;;5073549;28;20028;-42
2022/12/17 16:10:35;;;;;;;32.05;19.00;;;6.70;99.90;;;;;;5073464;28;20025;-42
2022/12/17 16:13:01;;;;;;;28.92;18.48;;;6.40;99.90;;;;;;5073490;28;20033;-42
2022/12/17 16:15:27;;;;;;;31.15;19.13;;;6.30;99.90;;;;;;5105650;28;20470;-42
2022/12/17 16:17:52;;;;;;;31.55;18.63;;;6.10;99.90;;;;;;5073113;28;20024;-42
2022/12/17 16:20:18;;;;;;;30.25;17.90;;;6.60;99.90;;;;;;5071912;28;20080;-41
2022/12/17 16:22:44;;;;;;;30.25;19.00;;;7.30;99.90;;;;;;5073270;28;20031;-42
2022/12/17 16:25:09;;;;;;;29.15;18.33;;;7.10;99.90;;;;;;5073254;28;20096;-42
2022/12/17 16:27:35;;;;;;;31.67;18.88;;;6.80;99.90;;;;;;5072911;28;20115;-42
2022/12/17 16:30:02;;;;;;;29.85;18.85;;;6.40;99.90;;;;;;5073035;28;20029;-42
2022/12/17 16:32:28;;;;;;;29.30;19.02;;;6.30;99.90;;;;;;5073070;28;20073;-42
2022/12/17 16:34:53;;;;;;;29.17;18.23;;;6.10;99.90;;;;;;5072971;28;20021;-42
2022/12/17 16:37:19;;;;;;;29.00;17.98;;;6.30;99.90;;;;;;5072634;28;20475;-40
2022/12/17 16:39:45;;;;;;;31.27;19.08;;;7.30;99.90;;;;;;5072991;28;20024;-42
2022/12/17 16:42:10;;;;;;;28.38;19.17;;;7.20;99.90;;;;;;5072897;28;20051;-42
2022/12/17 16:44:36;;;;;;;30.75;17.40;;;6.80;99.90;;;;;;5072814;28;20557;-41
2022/12/17 16:47:02;;;;;;;32.08;19.00;;;6.60;99.90;;;;;;5072545;28;20035;-41
2022/12/17 16:49:27;;;;;;;29.45;18.83;;;6.30;99.90;;;;;;5072672;28;20035;-42
2022/12/17 16:51:54;;;;;;;30.10;18.80;;;6.10;99.90;;;;;;5072741;28;20360;-41
2022/12/17 16:54:24;;;;;;;32.63;18.88;;;6.00;99.90;;;;;;5072608;28;20035;-40
2022/12/17 16:56:50;;;;;;;31.50;19.10;;;7.00;99.90;;;;;;5072291;28;20437;-40
2022/12/17 16:59:17;;;;;;;31.33;18.67;;;7.20;99.90;;;;;;5072554;28;20474;-40
2022/12/17 17:01:45;;;;;;;31.35;20.10;;;6.90;99.90;;;;;;5072496;28;20028;-42
2022/12/17 17:04:12;;;;;;;33.03;19.92;;;6.60;99.90;;;;;;5072069;28;20421;-40
2022/12/17 17:06:56;;;;;;;29.50;19.13;;;6.30;99.90;;;;;;5072201;28;20020;-41
2022/12/17 17:09:24;;;;;;;31.67;18.92;;;6.10;99.90;;;;;;5072394;28;20078;-39
2022/12/17 17:11:53;;;;;;;32.83;19.55;;;6.00;99.90;;;;;;5072307;28;20135;-42
2022/12/17 17:14:19;;;;;;;31.67;19.15;;;6.90;99.90;;;;;;5071921;28;20033;-42
2022/12/17 17:16:44;;;;;;;34.85;19.75;;;7.20;99.90;;;;;;5071935;28;20043;-39
2022/12/17 17:19:10;;;;;;;30.40;19.25;;;6.90;99.90;;;;;;5072399;28;20020;-41
2022/12/17 17:21:51;;;;;;;27.58;18.33;;;6.60;99.90;;;;;;5072231;28;20027;-42
2022/12/17 17:24:19;;;;;;;29.73;18.50;;;6.30;99.90;;;;;;5072051;28;20020;-41
2022/12/17 17:26:46;;;;;;;30.77;19.67;;;6.10;99.90;;;;;;5071714;28;20385;-40
2022/12/17 17:29:11;;;;;;;33.42;19.95;;;6.00;99.90;;;;;;5071944;28;20021;-40
2022/12/17 17:31:38;;;;;;;31.60;19.88;;;6.80;99.90;;;;;;5071896;28;20366;-39
2022/12/17 17:34:08;;;;;;;30.60;18.58;;;7.20;99.90;;;;;;5071885;28;20025;-38
2022/12/17 17:36:34;;;;;;;31.85;19.75;;;6.90;99.90;;;;;;5071525;28;20550;-35
2022/12/17 17:39:01;;;;;;;32.92;19.63;;;6.60;99.90;;;;;;5071627;28;20103;-41
2022/12/17 17:41:28;;;;;;;35.97;20.00;;;6.30;99.90;;;;;;5072049;28;20059;-41
2022/12/17 17:44:00;;;;;;;31.63;20.00;;;6.10;99.90;;;;;;5071680;28;20024;-41
2022/12/17 17:46:27;;;;;;;31.10;20.13;;;5.90;99.90;;;;;;5071441;28;20044;-41
2022/12/17 17:48:55;;;;;;;32.78;20.25;;;6.80;99.90;;;;;;5071678;28;20024;-40
2022/12/17 17:51:27;;;;;;;31.90;19.45;;;7.20;99.90;;;;;;5071558;28;20099;-41
2022/12/17 17:53:53;;;;;;;34.22;20.73;;;6.80;99.90;;;;;;5071535;28;20029;-41
2022/12/17 17:56:27;;;;;;;31.77;19.70;;;6.50;99.90;;;;;;5071469;28;20456;-42
2022/12/17 17:58:57;;;;;;;31.83;19.23;;;6.20;99.90;;;;;;5071505;28;20242;-39
2022/12/17 18:01:26;;;;;;;31.05;19.70;;;6.00;99.90;;;;;;5071510;28;20029;-41
2022/12/17 18:03:53;;;;;;;32.92;20.38;;;5.90;99.90;;;;;;5071535;28;20029;-39
2022/12/17 18:06:19;;;;;;;32.78;20.50;;;6.80;99.90;;;;;;5071106;28;20032;-34
2022/12/17 18:08:45;;;;;;;31.75;20.58;;;7.10;99.90;;;;;;5071414;28;20397;-39
2022/12/17 18:11:15;;;;;;;29.20;19.15;;;6.80;99.90;;;;;;5071324;28;20101;-40
2022/12/17 18:13:56;;;;;;;33.08;20.00;;;6.50;99.90;;;;;;5071351;28;20180;-41
2022/12/17 18:16:24;;;;;;;32.40;20.15;;;6.20;99.90;;;;;;5070323;28;20490;-42
2022/12/17 18:18:53;;;;;;;33.25;20.05;;;5.90;99.90;;;;;;5071222;28;20033;-41
2022/12/17 18:21:19;;;;;;;31.10;19.55;;;5.90;99.90;;;;;;5071260;28;20025;-41
2022/12/17 18:23:45;;;;;;;31.80;19.45;;;6.90;99.90;;;;;;5071471;28;20091;-39
2022/12/17 18:26:13;;;;;;;33.35;19.92;;;7.00;99.90;;;;;;5070887;28;20099;-41
2022/12/17 18:28:41;;;;;;;29.45;18.75;;;6.70;99.90;;;;;;5071180;28;20024;-42
2022/12/17 18:31:07;;;;;;;30.98;20.00;;;6.30;99.90;;;;;;5071001;28;20103;-40
2022/12/17 18:33:34;;;;;;;30.75;18.50;;;6.10;99.90;;;;;;5071142;28;20029;-41
2022/12/17 18:36:00;;;;;;;31.55;18.98;;;5.90;99.90;;;;;;5070880;28;20020;-42
2022/12/17 18:38:26;;;;;;;32.65;19.85;;;5.90;99.90;;;;;;5071025;28;20033;-39
2022/12/17 18:40:51;;;;;;;31.38;19.40;;;6.90;99.90;;;;;;5070990;28;20020;-39
2022/12/17 18:43:23;;;;;;;28.70;18.00;;;7.00;99.90;;;;;;5071026;28;20363;-40
2022/12/17 18:45:50;;;;;;;32.95;20.65;;;6.60;99.90;;;;;;5070813;28;20025;-42
2022/12/17 18:48:16;;;;;;;31.55;19.65;;;6.30;99.90;;;;;;5070948;28;20024;-39
2022/12/17 18:50:41;;;;;;;30.50;18.90;;;6.10;99.90;;;;;;5071177;28;20017;-38
2022/12/17 18:53:07;;;;;;;32.88;19.80;;;5.90;99.90;;;;;;5069662;28;20036;-42
2022/12/17 18:55:39;;;;;;;31.17;18.80;;;6.00;99.90;;;;;;5070708;28;20037;-40
2022/12/17 18:58:08;;;;;;;31.95;19.88;;;7.00;99.90;;;;;;5070634;28;20112;-39
2022/12/17 19:00:35;;;;;;;30.60;19.20;;;6.90;99.90;;;;;;5070954;28;20017;-41
2022/12/17 19:03:03;;;;;;;29.48;18.42;;;6.60;99.90;;;;;;5070950;28;20025;-37
2022/12/17 19:05:29;;;;;;;29.92;19.15;;;6.20;99.90;;;;;;5070813;28;20108;-36
2022/12/17 19:07:55;;;;;;;33.13;19.08;;;5.90;99.90;;;;;;5071134;28;20035;-40
2022/12/17 19:10:20;;;;;;;31.63;18.92;;;5.80;99.90;;;;;;5070786;28;20024;-40
2022/12/17 19:12:46;;;;;;;29.45;19.05;;;6.30;99.90;;;;;;5070652;28;20379;-37
2022/12/17 19:15:11;;;;;;;29.33;18.70;;;7.00;99.90;;;;;;5070756;28;20028;-38
2022/12/17 19:17:37;;;;;;;31.13;19.85;;;6.80;99.90;;;;;;5070561;28;20031;-42
2022/12/17 19:20:03;;;;;;;29.75;19.05;;;6.40;99.90;;;;;;5070735;28;20021;-36
2022/12/17 19:22:29;;;;;;;31.63;19.77;;;6.20;99.90;;;;;;5070704;28;20017;-42
2022/12/17 19:24:54;;;;;;;31.65;19.02;;;5.90;99.90;;;;;;5070534;28;20025;-39
2022/12/17 19:27:20;;;;;;;31.05;18.92;;;5.80;99.90;;;;;;5071225;28;20074;-41
2022/12/17 19:29:45;;;;;;;30.63;19.30;;;6.40;99.90;;;;;;5074241;28;20036;-41
2022/12/17 19:32:11;;;;;;;34.75;19.52;;;7.00;99.90;;;;;;5074289;28;20028;-39
2022/12/17 19:34:37;;;;;;;31.80;20.08;;;6.70;99.90;;;;;;5074156;28;20565;-39
2022/12/17 19:37:03;;;;;;;45.70;23.92;;;6.40;99.90;;;;;;5073905;28;20031;-41
2022/12/17 19:39:29;;;;;;;53.50;29.48;;;6.10;99.90;;;;;;5074054;28;20421;-40
2022/12/17 19:41:54;;;;;;;56.58;30.20;;;5.10;90.40;;;;;;5073922;28;20020;-34
2022/12/17 19:44:20;;;;;;;58.38;29.67;;;5.40;92.70;;;;;;5072719;28;20017;-39
2022/12/17 19:46:48;;;;;;;48.00;27.48;;;5.80;93.50;;;;;;5073748;28;20450;-34
2022/12/17 19:49:15;;;;;;;47.20;28.05;;;5.30;94.80;;;;;;5074331;28;20387;-39
2022/12/17 19:51:43;;;;;;;49.30;28.17;;;4.70;96.40;;;;;;5074559;28;20021;-36
2022/12/17 19:54:11;;;;;;;49.05;26.50;;;4.30;97.70;;;;;;5073720;28;20851;-36
2022/12/17 19:56:36;;;;;;;44.10;26.17;;;4.00;98.90;;;;;;5073389;28;20485;-33
2022/12/17 19:59:05;;;;;;;48.10;26.77;;;4.50;99.80;;;;;;5073633;28;20035;-35
2022/12/17 20:01:35;;;;;;;45.00;25.00;;;5.20;98.70;;;;;;5073759;28;20095;-36
2022/12/17 20:04:01;;;;;;;43.97;25.67;;;5.00;98.80;;;;;;5073766;28;20497;-35
2022/12/17 20:06:30;;;;;;;47.35;26.13;;;4.70;99.50;;;;;;5073315;28;20020;-38
2022/12/17 20:08:57;;;;;;;41.08;24.13;;;4.40;99.90;;;;;;5073920;28;20017;-38
2022/12/17 20:11:32;;;;;;;41.72;25.33;;;4.20;99.90;;;;;;5073575;28;20390;-38
2022/12/17 20:14:04;;;;;;;44.13;24.60;;;5.10;99.90;;;;;;5073111;28;20082;-37
2022/12/17 20:16:33;;;;;;;37.90;22.77;;;5.40;99.60;;;;;;5073099;28;20036;-35
2022/12/17 20:18:59;;;;;;;39.95;23.90;;;5.10;99.90;;;;;;5073283;28;20041;-39
2022/12/17 20:21:25;;;;;;;39.75;23.77;;;4.80;99.90;;;;;;5073277;28;20382;-37
2022/12/17 20:23:51;;;;;;;38.75;23.25;;;4.60;99.90;;;;;;5073222;28;20470;-38
2022/12/17 20:26:17;;;;;;;41.63;23.08;;;4.50;99.90;;;;;;5072943;28;20054;-36
2022/12/17 20:28:43;;;;;;;45.17;24.02;;;5.60;99.90;;;;;;5073032;28;20036;-36
2022/12/17 20:31:10;;;;;;;38.28;22.67;;;5.60;99.90;;;;;;5073330;28;20032;-38
2022/12/17 20:33:36;;;;;;;38.80;22.40;;;5.30;99.90;;;;;;5073058;28;20405;-38
2022/12/17 20:36:04;;;;;;;35.83;21.65;;;5.00;99.90;;;;;;5072748;28;20111;-38
2022/12/17 20:38:30;;;;;;;38.92;23.92;;;4.70;99.90;;;;;;5072370;28;20496;-38
2022/12/17 20:40:55;;;;;;;38.45;22.85;;;4.80;99.90;;;;;;5072708;28;20037;-35
2022/12/17 20:43:21;;;;;;;40.95;22.85;;;5.80;99.90;;;;;;5072829;28;20020;-37
2022/12/17 20:45:53;;;;;;;36.88;21.77;;;5.70;99.90;;;;;;5072635;28;20092;-38
2022/12/17 20:48:20;;;;;;;35.42;20.50;;;5.40;99.90;;;;;;5072696;28;20024;-35
2022/12/17 20:50:47;;;;;;;36.20;21.73;;;5.10;99.90;;;;;;5072734;28;20556;-36
2022/12/17 20:53:12;;;;;;;33.88;20.92;;;4.80;99.90;;;;;;5072629;28;20107;-38
2022/12/17 20:55:38;;;;;;;35.92;21.67;;;5.10;99.90;;;;;;5072322;28;20453;-37
2022/12/17 20:58:03;;;;;;;35.28;20.83;;;6.00;99.90;;;;;;5072488;28;20662;-36
2022/12/17 21:00:29;;;;;;;35.40;21.02;;;5.70;99.90;;;;;;5072633;28;20473;-38
2022/12/17 21:02:58;;;;;;;38.58;21.13;;;5.40;99.90;;;;;;5072551;28;20386;-35
2022/12/17 21:05:24;;;;;;;39.33;22.08;;;5.80;99.90;;;;;;5072333;28;20020;-38
2022/12/17 21:07:51;;;;;;;33.67;20.25;;;6.70;99.70;;;;;;5072226;28;20036;-38
2022/12/17 21:10:17;;;;;;;35.65;20.98;;;6.40;99.60;;;;;;5072259;28;20036;-38
2022/12/17 21:15:27;;;;;;;35.75;19.90;;;5.50;99.90;;;;;;5072175;28;20044;-37
2022/12/17 21:17:53;;;;;;;33.67;20.50;;;5.60;99.90;;;;;;5071980;28;20025;-36
2022/12/17 21:20:19;;;;;;;37.92;19.60;;;6.50;99.90;;;;;;5072055;28;20028;-35
2022/12/17 21:22:44;;;;;;;33.83;20.70;;;6.30;99.80;;;;;;5072107;28;20020;-35
2022/12/17 21:25:10;;;;;;;36.40;21.30;;;5.90;99.90;;;;;;5072071;28;20036;-34
2022/12/17 21:27:36;;;;;;;32.90;19.80;;;5.50;99.90;;;;;;5071677;28;20033;-37
2022/12/17 21:30:02;;;;;;;36.40;20.05;;;5.80;99.90;;;;;;5071996;28;20039;-35
2022/12/17 21:32:27;;;;;;;34.95;19.95;;;6.60;99.90;;;;;;5071985;28;20458;-35
2022/12/17 21:34:53;;;;;;;33.13;19.40;;;6.30;99.80;;;;;;5071766;28;20403;-36
2022/12/17 21:37:19;;;;;;;31.67;20.58;;;5.90;99.90;;;;;;5071456;28;20102;-34
2022/12/17 21:39:45;;;;;;;34.58;20.13;;;5.60;99.90;;;;;;5071784;28;20031;-40
2022/12/17 21:44:54;;;;;;;33.85;20.13;;;6.60;99.90;;;;;;5072022;28;20032;-38
2022/12/17 21:47:21;;;;;;;34.22;19.88;;;6.30;99.80;;;;;;5071332;28;20029;-38
2022/12/17 21:49:46;;;;;;;32.97;18.75;;;5.90;99.90;;;;;;5071576;28;20117;-38
2022/12/17 21:52:12;;;;;;;31.65;19.40;;;5.50;99.90;;;;;;5070912;28;20052;-36
2022/12/17 21:54:37;;;;;;;30.33;18.60;;;6.00;99.90;;;;;;5071523;28;20058;-38
2022/12/17 21:57:03;;;;;;;33.67;19.10;;;6.70;99.90;;;;;;5071264;28;20024;-41
2022/12/17 21:59:29;;;;;;;32.65;19.30;;;6.30;99.80;;;;;;5071571;28;20027;-37
2022/12/17 22:01:57;;;;;;;30.83;18.83;;;5.90;99.90;;;;;;5071374;28;20149;-36
2022/12/17 22:04:24;;;;;;;36.85;19.67;;;5.60;99.90;;;;;;5071422;28;20028;-35
2022/12/17 22:06:49;;;;;;;33.90;19.45;;;5.90;99.90;;;;;;5071544;28;20032;-41
2022/12/17 22:09:15;;;;;;;32.35;19.17;;;6.70;99.80;;;;;;5071400;28;20474;-37
2022/12/17 22:11:41;;;;;;;32.88;19.15;;;6.40;99.60;;;;;;5071447;28;20029;-36
2022/12/17 22:14:10;;;;;;;30.23;17.65;;;5.90;99.90;;;;;;5071014;28;20482;-40
2022/12/17 22:16:45;;;;;;;32.83;18.75;;;5.60;99.90;;;;;;5071240;28;20112;-37
2022/12/17 22:19:17;;;;;;;31.15;18.65;;;5.90;99.90;;;;;;5071272;28;20024;-37
2022/12/17 22:21:44;;;;;;;33.00;19.48;;;6.70;99.60;;;;;;5071305;28;20021;-37
2022/12/17 22:24:21;;;;;;;35.40;19.52;;;6.40;99.50;;;;;;5071231;28;20413;-41
2022/12/17 22:26:47;;;;;;;29.77;19.08;;;5.90;99.90;;;;;;5070958;28;20102;-35
2022/12/17 22:32:58;;;;;;;36.78;19.15;;;5.50;99.90;;;;;;5071179;28;20081;-38
2022/12/17 22:34:45;;;;;;;30.70;17.77;;;6.70;99.50;;;;;;5071048;28;20034;-41
2022/12/17 22:37:10;;;;;;;31.05;18.67;;;6.20;99.60;;;;;;5070639;28;20036;-40
2022/12/17 22:39:36;;;;;;;32.08;17.70;;;5.80;99.90;;;;;;5071221;28;20074;-37
2022/12/17 22:44:46;;;;;;;29.83;18.00;;;6.30;99.90;;;;;;5071103;28;20051;-37
2022/12/17 22:47:11;;;;;;;29.75;17.65;;;6.70;99.40;;;;;;5070746;28;20497;-39
2022/12/17 22:49:37;;;;;;;30.70;17.50;;;6.20;99.60;;;;;;5070885;28;20059;-38
2022/12/17 22:52:02;;;;;;;29.05;18.35;;;5.90;99.90;;;;;;5070970;28;20020;-36
2022/12/17 22:54:28;;;;;;;33.60;18.20;;;5.60;99.90;;;;;;5070861;28;20029;-40
2022/12/17 22:56:54;;;;;;;32.22;19.10;;;6.40;99.90;;;;;;5070664;28;20028;-41
2022/12/17 22:59:20;;;;;;;29.23;17.92;;;6.70;99.70;;;;;;5070892;28;20028;-40
2022/12/17 23:01:45;;;;;;;30.25;18.27;;;6.20;99.60;;;;;;5071009;28;20028;-39
2022/12/17 23:04:13;;;;;;;32.33;17.20;;;5.90;99.90;;;;;;5074704;28;20023;-38
2022/12/17 23:06:39;;;;;;;32.55;18.92;;;5.60;99.90;;;;;;5074493;28;20035;-41
2022/12/17 23:09:05;;;;;;;34.03;19.10;;;6.40;99.90;;;;;;5074717;28;20113;-40
2022/12/17 23:11:30;;;;;;;29.38;18.33;;;6.70;99.20;;;;;;5074753;28;20490;-39
2022/12/17 23:13:56;;;;;;;32.47;18.38;;;6.30;99.50;;;;;;5074667;28;20033;-40
2022/12/17 23:16:22;;;;;;;34.60;18.50;;;5.90;99.90;;;;;;5074683;28;20465;-38
2022/12/17 23:18:51;;;;;;;33.83;17.75;;;5.50;99.90;;;;;;5074374;28;20028;-39
2022/12/17 23:21:18;;;;;;;31.65;18.48;;;6.40;99.90;;;;;;5074411;28;20021;-41
2022/12/17 23:23:44;;;;;;;30.60;17.65;;;6.70;99.10;;;;;;5074390;28;20028;-35
2022/12/17 23:26:14;;;;;;;30.83;19.17;;;6.30;99.30;;;;;;5074083;28;20401;-40
2022/12/17 23:28:40;;;;;;;32.80;18.75;;;5.90;99.80;;;;;;5074428;28;20036;-41
2022/12/17 23:31:13;;;;;;;32.10;19.55;;;5.60;99.90;;;;;;5074166;28;20094;-38
2022/12/17 23:33:39;;;;;;;31.85;17.08;;;6.40;99.90;;;;;;5074167;28;20020;-36
2022/12/17 23:36:07;;;;;;;31.60;18.02;;;6.70;99.10;;;;;;5073867;28;20103;-36
2022/12/17 23:38:33;;;;;;;33.75;18.73;;;6.30;99.40;;;;;;5074358;28;20347;-40
2022/12/17 23:41:08;;;;;;;30.52;18.35;;;5.80;99.90;;;;;;5074132;28;20078;-42
2022/12/17 23:43:34;;;;;;;29.58;17.67;;;5.50;99.90;;;;;;5073951;28;20048;-37
2022/12/17 23:46:00;;;;;;;31.95;18.67;;;6.40;99.90;;;;;;5073785;28;20422;-38
2022/12/17 23:48:30;;;;;;;29.77;17.63;;;6.60;99.10;;;;;;5074063;28;20078;-38
2022/12/17 23:50:56;;;;;;;34.50;19.05;;;6.20;99.70;;;;;;5073917;28;20029;-38
2022/12/17 23:53:22;;;;;;;30.25;17.75;;;5.80;99.90;;;;;;5073955;28;20028;-41
2022/12/17 23:55:48;;;;;;;29.27;17.08;;;5.60;99.90;;;;;;5073503;28;20430;-38
2022/12/17 23:58:14;;;;;;;31.23;17.02;;;6.50;99.90;;;;;;5073520;28;20032;-37
